sensor_id;sensor_type;location;lat;lon;timestamp;P1;durP1;ratioP1;P2;durP2;ratioP2
974;SDS011;6115;49.296;10.602;2022-10-15T00:04:37;10.90;;;8.80;;
974;SDS011;6115;49.296;10.602;2022-10-15T00:09:37;11.13;;;9.10;;
974;SDS011;6115;49.296;10.602;2022-10-15T00:14:38;11.20;;;9.57;;
974;SDS011;6115;49.296;10.602;2022-10-15T00:19:39;11.00;;;8.80;;
974;SDS011;6115;49.296;10.602;2022-10-15T00:24:39;13.57;;;9.10;;
974;SDS011;6115;49.296;10.602;2022-10-15T00:29:40;10.63;;;8.40;;
974;SDS011;6115;49.296;10.602;2022-10-15T00:34:41;12.53;;;8.90;;
974;SDS011;6115;49.296;10.602;2022-10-15T00:39:41;11.17;;;8.97;;
974;SDS011;6115;49.296;10.602;2022-10-15T00:49:50;10.63;;;8.27;;
974;SDS011;6115;49.296;10.602;2022-10-15T00:55:40;8.27;;;7.43;;
974;SDS011;6115;49.296;10.602;2022-10-15T01:00:25;8.53;;;6.73;;
974;SDS011;6115;49.296;10.602;2022-10-15T01:05:26;7.50;;;6.37;;
974;SDS011;6115;49.296;10.602;2022-10-15T01:10:30;6.50;;;5.63;;
974;SDS011;6115;49.296;10.602;2022-10-15T01:15:48;6.60;;;5.87;;
974;SDS011;6115;49.296;10.602;2022-10-15T01:21:02;6.23;;;5.33;;
974;SDS011;6115;49.296;10.602;2022-10-15T01:31:34;5.73;;;4.10;;
974;SDS011;6115;49.296;10.602;2022-10-15T01:47:23;2.70;;;2.50;;
974;SDS011;6115;49.296;10.602;2022-10-15T01:52:57;4.90;;;2.07;;
974;SDS011;6115;49.296;10.602;2022-10-15T01:58:00;5.10;;;2.67;;
974;SDS011;6115;49.296;10.602;2022-10-15T02:03:02;2.10;;;1.80;;
974;SDS011;6115;49.296;10.602;2022-10-15T02:08:09;1.73;;;1.63;;
974;SDS011;6115;49.296;10.602;2022-10-15T02:24:32;3.80;;;1.37;;
974;SDS011;6115;49.296;10.602;2022-10-15T02:29:36;2.17;;;1.33;;
974;SDS011;6115;49.296;10.602;2022-10-15T02:34:38;2.03;;;1.60;;
974;SDS011;6115;49.296;10.602;2022-10-15T02:39:39;2.40;;;1.70;;
974;SDS011;6115;49.296;10.602;2022-10-15T02:44:39;1.87;;;1.40;;
974;SDS011;6115;49.296;10.602;2022-10-15T02:49:40;2.80;;;1.50;;
974;SDS011;6115;49.296;10.602;2022-10-15T02:54:40;2.17;;;1.80;;
974;SDS011;6115;49.296;10.602;2022-10-15T02:59:41;1.90;;;1.80;;
974;SDS011;6115;49.296;10.602;2022-10-15T03:04:42;1.50;;;1.40;;
974;SDS011;6115;49.296;10.602;2022-10-15T03:09:42;2.63;;;1.50;;
974;SDS011;6115;49.296;10.602;2022-10-15T03:14:43;1.83;;;1.73;;
974;SDS011;6115;49.296;10.602;2022-10-15T03:19:43;2.67;;;1.70;;
974;SDS011;6115;49.296;10.602;2022-10-15T03:24:44;5.10;;;1.90;;
974;SDS011;6115;49.296;10.602;2022-10-15T03:29:44;1.93;;;1.50;;
974;SDS011;6115;49.296;10.602;2022-10-15T03:34:45;2.67;;;1.87;;
974;SDS011;6115;49.296;10.602;2022-10-15T03:39:45;3.70;;;1.80;;
974;SDS011;6115;49.296;10.602;2022-10-15T03:44:46;1.60;;;1.50;;
974;SDS011;6115;49.296;10.602;2022-10-15T03:49:46;2.23;;;1.40;;
974;SDS011;6115;49.296;10.602;2022-10-15T03:54:47;2.67;;;1.90;;
974;SDS011;6115;49.296;10.602;2022-10-15T03:59:48;2.50;;;1.90;;
974;SDS011;6115;49.296;10.602;2022-10-15T04:04:50;1.70;;;1.60;;
974;SDS011;6115;49.296;10.602;2022-10-15T04:09:52;1.63;;;1.53;;
974;SDS011;6115;49.296;10.602;2022-10-15T04:14:52;2.33;;;1.57;;
974;SDS011;6115;49.296;10.602;2022-10-15T04:19:53;1.43;;;1.33;;
974;SDS011;6115;49.296;10.602;2022-10-15T04:24:53;1.63;;;1.20;;
974;SDS011;6115;49.296;10.602;2022-10-15T04:29:54;2.40;;;1.00;;
974;SDS011;6115;49.296;10.602;2022-10-15T04:34:54;1.40;;;1.00;;
974;SDS011;6115;49.296;10.602;2022-10-15T04:39:55;1.17;;;0.87;;
974;SDS011;6115;49.296;10.602;2022-10-15T04:44:55;1.17;;;0.93;;
974;SDS011;6115;49.296;10.602;2022-10-15T04:49:56;4.57;;;1.30;;
974;SDS011;6115;49.296;10.602;2022-10-15T04:54:57;2.40;;;1.00;;
974;SDS011;6115;49.296;10.602;2022-10-15T04:59:57;1.10;;;1.00;;
974;SDS011;6115;49.296;10.602;2022-10-15T05:04:58;2.27;;;1.03;;
974;SDS011;6115;49.296;10.602;2022-10-15T05:09:58;1.20;;;1.10;;
974;SDS011;6115;49.296;10.602;2022-10-15T05:14:59;2.53;;;1.20;;
974;SDS011;6115;49.296;10.602;2022-10-15T05:19:59;1.67;;;1.33;;
974;SDS011;6115;49.296;10.602;2022-10-15T05:25:00;2.63;;;2.43;;
974;SDS011;6115;49.296;10.602;2022-10-15T05:30:00;1.40;;;1.30;;
974;SDS011;6115;49.296;10.602;2022-10-15T05:35:01;3.10;;;1.40;;
974;SDS011;6115;49.296;10.602;2022-10-15T05:40:04;2.80;;;1.50;;
974;SDS011;6115;49.296;10.602;2022-10-15T05:45:05;2.50;;;2.10;;
974;SDS011;6115;49.296;10.602;2022-10-15T05:50:06;4.13;;;3.80;;
974;SDS011;6115;49.296;10.602;2022-10-15T05:55:07;3.87;;;3.57;;
974;SDS011;6115;49.296;10.602;2022-10-15T06:00:08;2.50;;;2.30;;
974;SDS011;6115;49.296;10.602;2022-10-15T06:05:09;3.90;;;3.57;;
974;SDS011;6115;49.296;10.602;2022-10-15T06:10:10;3.37;;;2.93;;
974;SDS011;6115;49.296;10.602;2022-10-15T06:15:10;7.33;;;5.20;;
974;SDS011;6115;49.296;10.602;2022-10-15T06:20:11;3.33;;;2.70;;
974;SDS011;6115;49.296;10.602;2022-10-15T06:25:12;2.47;;;2.37;;
974;SDS011;6115;49.296;10.602;2022-10-15T06:30:13;3.30;;;2.53;;
974;SDS011;6115;49.296;10.602;2022-10-15T06:35:13;2.20;;;2.00;;
974;SDS011;6115;49.296;10.602;2022-10-15T06:40:14;1.73;;;1.17;;
974;SDS011;6115;49.296;10.602;2022-10-15T06:45:15;6.80;;;1.30;;
974;SDS011;6115;49.296;10.602;2022-10-15T06:50:15;0.90;;;0.63;;
974;SDS011;6115;49.296;10.602;2022-10-15T06:55:16;1.37;;;1.00;;
974;SDS011;6115;49.296;10.602;2022-10-15T07:00:16;1.93;;;0.73;;
974;SDS011;6115;49.296;10.602;2022-10-15T07:05:20;0.73;;;0.60;;
974;SDS011;6115;49.296;10.602;2022-10-15T07:10:21;0.90;;;0.80;;
974;SDS011;6115;49.296;10.602;2022-10-15T07:15:23;1.17;;;1.07;;
974;SDS011;6115;49.296;10.602;2022-10-15T07:20:23;2.57;;;1.90;;
974;SDS011;6115;49.296;10.602;2022-10-15T07:25:24;2.50;;;1.77;;
974;SDS011;6115;49.296;10.602;2022-10-15T07:30:26;2.20;;;1.90;;
974;SDS011;6115;49.296;10.602;2022-10-15T07:35:27;4.73;;;2.50;;
974;SDS011;6115;49.296;10.602;2022-10-15T07:40:28;2.50;;;2.30;;
974;SDS011;6115;49.296;10.602;2022-10-15T07:45:29;2.93;;;2.73;;
974;SDS011;6115;49.296;10.602;2022-10-15T07:50:29;3.50;;;3.20;;
974;SDS011;6115;49.296;10.602;2022-10-15T07:55:30;6.23;;;4.27;;
974;SDS011;6115;49.296;10.602;2022-10-15T08:00:31;2.40;;;2.20;;
974;SDS011;6115;49.296;10.602;2022-10-15T08:05:32;3.57;;;2.17;;
974;SDS011;6115;49.296;10.602;2022-10-15T08:10:34;2.67;;;2.20;;
974;SDS011;6115;49.296;10.602;2022-10-15T08:15:37;3.00;;;1.57;;
974;SDS011;6115;49.296;10.602;2022-10-15T08:20:39;2.50;;;2.30;;
974;SDS011;6115;49.296;10.602;2022-10-15T08:25:39;3.30;;;2.30;;
974;SDS011;6115;49.296;10.602;2022-10-15T08:30:41;10.27;;;1.70;;
974;SDS011;6115;49.296;10.602;2022-10-15T08:35:42;1.87;;;1.77;;
974;SDS011;6115;49.296;10.602;2022-10-15T08:40:47;1.93;;;1.40;;
974;SDS011;6115;49.296;10.602;2022-10-15T08:45:49;1.70;;;1.60;;
974;SDS011;6115;49.296;10.602;2022-10-15T08:50:58;3.20;;;1.23;;
974;SDS011;6115;49.296;10.602;2022-10-15T08:56:03;1.93;;;1.73;;
974;SDS011;6115;49.296;10.602;2022-10-15T09:01:14;3.03;;;1.70;;
974;SDS011;6115;49.296;10.602;2022-10-15T09:06:27;2.20;;;2.00;;
974;SDS011;6115;49.296;10.602;2022-10-15T09:11:36;2.10;;;1.67;;
974;SDS011;6115;49.296;10.602;2022-10-15T09:16:48;3.20;;;2.93;;
974;SDS011;6115;49.296;10.602;2022-10-15T09:21:50;2.40;;;2.30;;
974;SDS011;6115;49.296;10.602;2022-10-15T09:26:53;2.90;;;2.40;;
974;SDS011;6115;49.296;10.602;2022-10-15T09:37:23;2.80;;;2.60;;
974;SDS011;6115;49.296;10.602;2022-10-15T09:42:33;2.50;;;2.30;;
974;SDS011;6115;49.296;10.602;2022-10-15T09:47:38;1.60;;;1.50;;
974;SDS011;6115;49.296;10.602;2022-10-15T09:58:06;1.20;;;1.10;;
974;SDS011;6115;49.296;10.602;2022-10-15T10:03:14;1.10;;;1.00;;
974;SDS011;6115;49.296;10.602;2022-10-15T10:13:27;1.40;;;1.30;;
974;SDS011;6115;49.296;10.602;2022-10-15T10:18:29;1.40;;;1.30;;
974;SDS011;6115;49.296;10.602;2022-10-15T10:23:32;0.93;;;0.90;;
974;SDS011;6115;49.296;10.602;2022-10-15T10:28:51;1.10;;;1.00;;
974;SDS011;6115;49.296;10.602;2022-10-15T10:33:54;1.40;;;0.97;;
974;SDS011;6115;49.296;10.602;2022-10-15T10:43:59;3.77;;;1.33;;
974;SDS011;6115;49.296;10.602;2022-10-15T10:49:00;0.93;;;0.83;;
974;SDS011;6115;49.296;10.602;2022-10-15T10:54:04;4.50;;;1.17;;
974;SDS011;6115;49.296;10.602;2022-10-15T10:59:14;1.63;;;1.00;;
974;SDS011;6115;49.296;10.602;2022-10-15T11:04:34;1.10;;;0.70;;
974;SDS011;6115;49.296;10.602;2022-10-15T11:25:54;3.07;;;1.60;;
974;SDS011;6115;49.296;10.602;2022-10-15T11:36:31;2.30;;;0.70;;
974;SDS011;6115;49.296;10.602;2022-10-15T11:41:56;0.90;;;0.70;;
974;SDS011;6115;49.296;10.602;2022-10-15T11:47:10;0.80;;;0.67;;
974;SDS011;6115;49.296;10.602;2022-10-15T11:57:52;1.47;;;0.70;;
974;SDS011;6115;49.296;10.602;2022-10-15T12:02:59;1.20;;;0.80;;
974;SDS011;6115;49.296;10.602;2022-10-15T12:08:11;1.07;;;0.90;;
974;SDS011;6115;49.296;10.602;2022-10-15T12:18:26;1.00;;;0.80;;
974;SDS011;6115;49.296;10.602;2022-10-15T12:23:38;2.90;;;0.90;;
974;SDS011;6115;49.296;10.602;2022-10-15T12:28:46;0.90;;;0.70;;
974;SDS011;6115;49.296;10.602;2022-10-15T12:33:52;0.80;;;0.60;;
974;SDS011;6115;49.296;10.602;2022-10-15T12:39:02;1.10;;;0.60;;
974;SDS011;6115;49.296;10.602;2022-10-15T12:44:10;1.40;;;0.80;;
974;SDS011;6115;49.296;10.602;2022-10-15T12:49:44;0.80;;;0.60;;
974;SDS011;6115;49.296;10.602;2022-10-15T12:54:46;1.73;;;0.60;;
974;SDS011;6115;49.296;10.602;2022-10-15T12:59:53;1.10;;;0.60;;
974;SDS011;6115;49.296;10.602;2022-10-15T13:04:55;2.10;;;0.87;;
974;SDS011;6115;49.296;10.602;2022-10-15T13:09:56;1.20;;;0.80;;
974;SDS011;6115;49.296;10.602;2022-10-15T13:14:59;3.40;;;1.47;;
974;SDS011;6115;49.296;10.602;2022-10-15T13:20:04;3.30;;;0.80;;
974;SDS011;6115;49.296;10.602;2022-10-15T13:25:14;2.33;;;1.30;;
974;SDS011;6115;49.296;10.602;2022-10-15T13:30:16;1.00;;;0.80;;
974;SDS011;6115;49.296;10.602;2022-10-15T13:35:18;1.20;;;1.00;;
974;SDS011;6115;49.296;10.602;2022-10-15T13:40:28;4.70;;;2.60;;
974;SDS011;6115;49.296;10.602;2022-10-15T13:45:30;1.33;;;1.23;;
974;SDS011;6115;49.296;10.602;2022-10-15T13:50:32;2.90;;;1.40;;
974;SDS011;6115;49.296;10.602;2022-10-15T13:55:35;1.63;;;0.90;;
974;SDS011;6115;49.296;10.602;2022-10-15T14:00:38;1.43;;;0.77;;
974;SDS011;6115;49.296;10.602;2022-10-15T14:05:40;1.67;;;1.23;;
974;SDS011;6115;49.296;10.602;2022-10-15T14:10:45;1.30;;;0.77;;
974;SDS011;6115;49.296;10.602;2022-10-15T14:20:52;1.27;;;0.83;;
974;SDS011;6115;49.296;10.602;2022-10-15T14:25:58;2.20;;;0.93;;
974;SDS011;6115;49.296;10.602;2022-10-15T14:31:01;2.50;;;1.10;;
974;SDS011;6115;49.296;10.602;2022-10-15T14:41:23;2.67;;;1.70;;
974;SDS011;6115;49.296;10.602;2022-10-15T14:46:24;3.03;;;1.30;;
974;SDS011;6115;49.296;10.602;2022-10-15T14:51:31;1.47;;;1.07;;
974;SDS011;6115;49.296;10.602;2022-10-15T14:56:31;3.87;;;1.00;;
974;SDS011;6115;49.296;10.602;2022-10-15T15:01:32;5.13;;;1.47;;
974;SDS011;6115;49.296;10.602;2022-10-15T15:06:34;4.13;;;1.00;;
974;SDS011;6115;49.296;10.602;2022-10-15T15:11:35;1.53;;;1.07;;
974;SDS011;6115;49.296;10.602;2022-10-15T15:16:36;3.27;;;1.20;;
974;SDS011;6115;49.296;10.602;2022-10-15T15:21:36;2.03;;;1.10;;
974;SDS011;6115;49.296;10.602;2022-10-15T15:26:37;1.40;;;0.80;;
974;SDS011;6115;49.296;10.602;2022-10-15T15:31:37;2.67;;;0.93;;
974;SDS011;6115;49.296;10.602;2022-10-15T15:36:38;2.80;;;0.80;;
974;SDS011;6115;49.296;10.602;2022-10-15T15:41:39;2.77;;;1.47;;
974;SDS011;6115;49.296;10.602;2022-10-15T15:46:39;1.53;;;1.03;;
974;SDS011;6115;49.296;10.602;2022-10-15T15:51:40;1.20;;;1.10;;
974;SDS011;6115;49.296;10.602;2022-10-15T15:56:40;3.10;;;1.00;;
974;SDS011;6115;49.296;10.602;2022-10-15T16:01:41;1.20;;;1.10;;
974;SDS011;6115;49.296;10.602;2022-10-15T16:06:42;1.17;;;0.77;;
974;SDS011;6115;49.296;10.602;2022-10-15T16:11:43;2.70;;;1.33;;
974;SDS011;6115;49.296;10.602;2022-10-15T16:16:44;1.50;;;1.10;;
974;SDS011;6115;49.296;10.602;2022-10-15T16:21:44;1.30;;;1.20;;
974;SDS011;6115;49.296;10.602;2022-10-15T16:26:45;6.47;;;1.20;;
974;SDS011;6115;49.296;10.602;2022-10-15T16:31:45;1.90;;;1.70;;
974;SDS011;6115;49.296;10.602;2022-10-15T16:36:46;2.23;;;1.60;;
974;SDS011;6115;49.296;10.602;2022-10-15T16:41:47;1.60;;;1.37;;
974;SDS011;6115;49.296;10.602;2022-10-15T16:46:47;2.60;;;1.20;;
974;SDS011;6115;49.296;10.602;2022-10-15T16:51:48;1.40;;;1.20;;
974;SDS011;6115;49.296;10.602;2022-10-15T16:56:48;6.53;;;1.43;;
974;SDS011;6115;49.296;10.602;2022-10-15T17:01:50;1.47;;;1.10;;
974;SDS011;6115;49.296;10.602;2022-10-15T17:06:51;2.70;;;1.30;;
974;SDS011;6115;49.296;10.602;2022-10-15T17:11:52;1.30;;;1.13;;
974;SDS011;6115;49.296;10.602;2022-10-15T17:16:52;1.20;;;1.10;;
974;SDS011;6115;49.296;10.602;2022-10-15T17:21:53;4.20;;;3.27;;
974;SDS011;6115;49.296;10.602;2022-10-15T17:26:54;1.70;;;1.60;;
974;SDS011;6115;49.296;10.602;2022-10-15T17:31:57;3.27;;;1.30;;
974;SDS011;6115;49.296;10.602;2022-10-15T17:36:58;1.90;;;1.30;;
974;SDS011;6115;49.296;10.602;2022-10-15T17:41:58;1.67;;;1.57;;
974;SDS011;6115;49.296;10.602;2022-10-15T17:46:59;1.60;;;1.50;;
974;SDS011;6115;49.296;10.602;2022-10-15T17:51:59;3.97;;;3.57;;
974;SDS011;6115;49.296;10.602;2022-10-15T17:57:00;1.50;;;1.40;;
974;SDS011;6115;49.296;10.602;2022-10-15T18:02:00;2.60;;;1.20;;
974;SDS011;6115;49.296;10.602;2022-10-15T18:07:01;2.73;;;1.10;;
974;SDS011;6115;49.296;10.602;2022-10-15T18:12:01;2.50;;;1.50;;
974;SDS011;6115;49.296;10.602;2022-10-15T18:17:02;3.23;;;2.50;;
974;SDS011;6115;49.296;10.602;2022-10-15T18:22:04;1.50;;;1.40;;
974;SDS011;6115;49.296;10.602;2022-10-15T18:27:04;2.60;;;1.37;;
974;SDS011;6115;49.296;10.602;2022-10-15T18:32:05;3.27;;;1.90;;
974;SDS011;6115;49.296;10.602;2022-10-15T18:37:05;5.63;;;2.60;;
974;SDS011;6115;49.296;10.602;2022-10-15T18:42:06;2.80;;;1.47;;
974;SDS011;6115;49.296;10.602;2022-10-15T18:47:06;3.73;;;1.73;;
974;SDS011;6115;49.296;10.602;2022-10-15T18:52:07;3.10;;;1.63;;
974;SDS011;6115;49.296;10.602;2022-10-15T18:57:08;6.83;;;2.17;;
974;SDS011;6115;49.296;10.602;2022-10-15T19:02:08;4.47;;;1.97;;
974;SDS011;6115;49.296;10.602;2022-10-15T19:07:09;4.30;;;1.63;;
974;SDS011;6115;49.296;10.602;2022-10-15T19:12:10;4.50;;;2.03;;
974;SDS011;6115;49.296;10.602;2022-10-15T19:17:10;1.57;;;1.47;;
974;SDS011;6115;49.296;10.602;2022-10-15T19:22:12;2.40;;;1.40;;
974;SDS011;6115;49.296;10.602;2022-10-15T19:27:12;3.30;;;1.30;;
974;SDS011;6115;49.296;10.602;2022-10-15T19:32:13;4.83;;;2.40;;
974;SDS011;6115;49.296;10.602;2022-10-15T19:37:14;2.00;;;1.50;;
974;SDS011;6115;49.296;10.602;2022-10-15T19:42:14;3.23;;;2.07;;
974;SDS011;6115;49.296;10.602;2022-10-15T19:47:15;2.07;;;1.87;;
974;SDS011;6115;49.296;10.602;2022-10-15T19:52:19;1.60;;;1.50;;
974;SDS011;6115;49.296;10.602;2022-10-15T19:57:23;1.97;;;1.50;;
974;SDS011;6115;49.296;10.602;2022-10-15T20:02:23;3.70;;;1.50;;
974;SDS011;6115;49.296;10.602;2022-10-15T20:07:24;2.80;;;1.60;;
974;SDS011;6115;49.296;10.602;2022-10-15T20:12:25;1.97;;;1.40;;
974;SDS011;6115;49.296;10.602;2022-10-15T20:17:26;2.03;;;1.30;;
974;SDS011;6115;49.296;10.602;2022-10-15T20:22:26;2.40;;;1.40;;
974;SDS011;6115;49.296;10.602;2022-10-15T20:27:27;1.33;;;1.23;;
974;SDS011;6115;49.296;10.602;2022-10-15T20:32:28;3.20;;;1.30;;
974;SDS011;6115;49.296;10.602;2022-10-15T20:37:28;3.53;;;1.20;;
974;SDS011;6115;49.296;10.602;2022-10-15T20:42:29;1.30;;;1.20;;
974;SDS011;6115;49.296;10.602;2022-10-15T20:47:30;2.60;;;1.53;;
974;SDS011;6115;49.296;10.602;2022-10-15T20:52:32;3.13;;;1.20;;
974;SDS011;6115;49.296;10.602;2022-10-15T20:57:33;2.80;;;1.10;;
974;SDS011;6115;49.296;10.602;2022-10-15T21:02:33;1.40;;;1.20;;
974;SDS011;6115;49.296;10.602;2022-10-15T21:07:34;2.90;;;1.50;;
974;SDS011;6115;49.296;10.602;2022-10-15T21:12:35;6.30;;;1.70;;
974;SDS011;6115;49.296;10.602;2022-10-15T21:17:35;2.50;;;1.20;;
974;SDS011;6115;49.296;10.602;2022-10-15T21:22:36;1.93;;;1.73;;
974;SDS011;6115;49.296;10.602;2022-10-15T21:27:36;1.53;;;1.30;;
974;SDS011;6115;49.296;10.602;2022-10-15T21:32:37;3.37;;;2.20;;
974;SDS011;6115;49.296;10.602;2022-10-15T21:37:37;3.60;;;1.77;;
974;SDS011;6115;49.296;10.602;2022-10-15T21:42:38;1.77;;;1.63;;
974;SDS011;6115;49.296;10.602;2022-10-15T21:47:39;4.00;;;1.83;;
974;SDS011;6115;49.296;10.602;2022-10-15T21:52:39;3.73;;;1.60;;
974;SDS011;6115;49.296;10.602;2022-10-15T21:57:40;2.80;;;1.70;;
974;SDS011;6115;49.296;10.602;2022-10-15T22:02:41;2.07;;;1.63;;
974;SDS011;6115;49.296;10.602;2022-10-15T22:07:41;1.73;;;1.63;;
974;SDS011;6115;49.296;10.602;2022-10-15T22:12:42;1.90;;;1.70;;
974;SDS011;6115;49.296;10.602;2022-10-15T22:17:42;2.60;;;2.17;;
974;SDS011;6115;49.296;10.602;2022-10-15T22:22:43;2.83;;;1.60;;
974;SDS011;6115;49.296;10.602;2022-10-15T22:27:43;4.20;;;2.47;;
974;SDS011;6115;49.296;10.602;2022-10-15T22:32:44;7.70;;;2.10;;
974;SDS011;6115;49.296;10.602;2022-10-15T22:37:44;5.33;;;2.07;;
974;SDS011;6115;49.296;10.602;2022-10-15T22:42:45;2.70;;;2.03;;
974;SDS011;6115;49.296;10.602;2022-10-15T22:47:47;1.70;;;1.60;;
974;SDS011;6115;49.296;10.602;2022-10-15T22:52:47;2.77;;;1.87;;
974;SDS011;6115;49.296;10.602;2022-10-15T22:57:48;2.90;;;1.90;;
974;SDS011;6115;49.296;10.602;2022-10-15T23:02:51;3.90;;;1.93;;
974;SDS011;6115;49.296;10.602;2022-10-15T23:07:51;1.93;;;1.30;;
974;SDS011;6115;49.296;10.602;2022-10-15T23:12:52;2.10;;;1.57;;
974;SDS011;6115;49.296;10.602;2022-10-15T23:17:52;2.60;;;1.50;;
974;SDS011;6115;49.296;10.602;2022-10-15T23:22:54;3.80;;;2.00;;
974;SDS011;6115;49.296;10.602;2022-10-15T23:27:55;1.90;;;1.80;;
974;SDS011;6115;49.296;10.602;2022-10-15T23:32:55;6.07;;;2.00;;
974;SDS011;6115;49.296;10.602;2022-10-15T23:37:56;2.90;;;1.73;;
974;SDS011;6115;49.296;10.602;2022-10-15T23:42:56;2.03;;;1.70;;
974;SDS011;6115;49.296;10.602;2022-10-15T23:47:57;2.97;;;2.27;;
974;SDS011;6115;49.296;10.602;2022-10-15T23:52:57;1.77;;;1.60;;
974;SDS011;6115;49.296;10.602;2022-10-15T23:57:58;4.13;;;1.70;;
